DLH6 LOWW-EDDM
Flight info
| Callsign | DLH6 |
|---|---|
| Flight time | N/A |
| Altitude | 26000 |
| Route | ODSU2C/29 SOVIL DCT SITNI DCT BAGSI DCT MATIG DCT AMADI Q113 NAPSA NAPSA4A |
| Aircraft | A359/H-SDE2E3GHIJ3J4J5LM1ORWXY/LB1D1 |
Departure
| Time | 2026-04-22 20:42 |
|---|---|
| Airport | Vienna International Airport (LOWW) |
Arrival
| Time | N/A |
|---|---|
| Airport | Munich Airport (EDDM) |
| Time | Latitude | Longitude | Altitude | Speed | Heading |
|---|---|---|---|---|---|
| 2026-04-22 20:08 | 48.11668 | 16.56921 | 615 ft | 0 kts | 26° |
| 2026-04-22 20:10 | 48.11651 | 16.56950 | 620 ft | 0 kts | 25° |
| 2026-04-22 20:11 | 48.11854 | 16.56938 | 627 ft | 0 kts | 206° |
| 2026-04-22 20:33 | 48.11850 | 16.56935 | 627 ft | 4 kts | 206° |
| 2026-04-22 20:33 | 48.11861 | 16.56943 | 629 ft | 4 kts | 202° |
| 2026-04-22 20:34 | 48.11887 | 16.56956 | 624 ft | 4 kts | 191° |
| 2026-04-22 20:34 | 48.11914 | 16.56960 | 629 ft | 4 kts | 174° |
| 2026-04-22 20:34 | 48.11938 | 16.56950 | 629 ft | 4 kts | 136° |
| 2026-04-22 20:34 | 48.11942 | 16.56945 | 629 ft | 4 kts | 116° |
| 2026-04-22 20:35 | 48.11931 | 16.56978 | 629 ft | 4 kts | 116° |
| 2026-04-22 20:35 | 48.11919 | 16.57014 | 629 ft | 4 kts | 116° |
| 2026-04-22 20:35 | 48.11910 | 16.57041 | 624 ft | 0 kts | 116° |
| 2026-04-22 20:38 | 48.11887 | 16.57116 | 629 ft | 25 kts | 112° |
| 2026-04-22 20:38 | 48.11814 | 16.57359 | 629 ft | 35 kts | 114° |
| 2026-04-22 20:38 | 48.11782 | 16.57438 | 622 ft | 0 kts | 127° |
| 2026-04-22 20:38 | 48.11769 | 16.57458 | 629 ft | 11 kts | 135° |
| 2026-04-22 20:39 | 48.11686 | 16.57529 | 625 ft | 18 kts | 152° |
| 2026-04-22 20:39 | 48.11554 | 16.57579 | 627 ft | 21 kts | 167° |
| 2026-04-22 20:39 | 48.11406 | 16.57640 | 621 ft | 23 kts | 162° |
| 2026-04-22 20:39 | 48.11246 | 16.57667 | 625 ft | 24 kts | 202° |
| 2026-04-22 20:40 | 48.11105 | 16.57606 | 629 ft | 13 kts | 161° |
| 2026-04-22 20:40 | 48.11029 | 16.57631 | 615 ft | 11 kts | 191° |
| 2026-04-22 20:40 | 48.10952 | 16.57579 | 629 ft | 15 kts | 208° |
| 2026-04-22 20:40 | 48.10926 | 16.57515 | 628 ft | 4 kts | 284° |
| 2026-04-22 20:41 | 48.11005 | 16.57260 | 627 ft | 64 kts | 296° |
| 2026-04-22 20:41 | 48.11311 | 16.56338 | 626 ft | 134 kts | 296° |
| 2026-04-22 20:41 | 48.11547 | 16.55645 | 638 ft | 163 kts | 299° |
| 2026-04-22 20:41 | 48.11779 | 16.55006 | 945 ft | 153 kts | 301° |
| 2026-04-22 20:42 | 48.12192 | 16.53890 | 1964 ft | 135 kts | 304° |
| 2026-04-22 20:42 | 48.12338 | 16.53114 | 2244 ft | 147 kts | 285° |
| 2026-04-22 20:42 | 48.12040 | 16.51745 | 2401 ft | 185 kts | 237° |
| 2026-04-22 20:42 | 48.11039 | 16.50753 | 2710 ft | 206 kts | 204° |
| 2026-04-22 20:43 | 48.09718 | 16.50074 | 3167 ft | 215 kts | 204° |
| 2026-04-22 20:43 | 48.08626 | 16.48687 | 3616 ft | 213 kts | 241° |
| 2026-04-22 20:43 | 48.07851 | 16.47106 | 4153 ft | 219 kts | 234° |
| 2026-04-22 20:43 | 48.06685 | 16.45664 | 4668 ft | 233 kts | 218° |
| 2026-04-22 20:44 | 48.06185 | 16.45131 | 4847 ft | 237 kts | 219° |
| 2026-04-22 20:44 | 48.04851 | 16.43456 | 5385 ft | 247 kts | 225° |
| 2026-04-22 20:44 | 48.03594 | 16.41799 | 5816 ft | 262 kts | 224° |
| 2026-04-22 20:44 | 48.02239 | 16.40046 | 6489 ft | 268 kts | 224° |
| 2026-04-22 20:45 | 48.00849 | 16.38247 | 7200 ft | 273 kts | 224° |
| 2026-04-22 20:45 | 47.99526 | 16.36529 | 7808 ft | 280 kts | 224° |
| 2026-04-22 20:45 | 47.98086 | 16.34619 | 8461 ft | 286 kts | 226° |
| 2026-04-22 20:45 | 47.96881 | 16.32249 | 9185 ft | 285 kts | 247° |
| 2026-04-22 20:46 | 47.96462 | 16.26528 | 10415 ft | 290 kts | 282° |
| 2026-04-22 20:46 | 47.96767 | 16.23468 | 10702 ft | 308 kts | 283° |
| 2026-04-22 20:46 | 47.97102 | 16.20245 | 11016 ft | 325 kts | 283° |
| 2026-04-22 20:47 | 47.97436 | 16.16850 | 11546 ft | 333 kts | 282° |
| 2026-04-22 20:47 | 47.97764 | 16.13405 | 12158 ft | 338 kts | 282° |
| 2026-04-22 20:47 | 47.97984 | 16.11094 | 12550 ft | 342 kts | 282° |
| 2026-04-22 20:47 | 47.98318 | 16.07549 | 13138 ft | 347 kts | 282° |
| 2026-04-22 20:48 | 47.98651 | 16.03957 | 13744 ft | 351 kts | 282° |
| 2026-04-22 20:48 | 47.99104 | 15.99085 | 14495 ft | 358 kts | 282° |
| 2026-04-22 20:48 | 47.99330 | 15.96640 | 14872 ft | 361 kts | 282° |
| 2026-04-22 20:48 | 47.99671 | 15.92912 | 15386 ft | 365 kts | 282° |
| 2026-04-22 20:49 | 48.00118 | 15.88031 | 16102 ft | 371 kts | 282° |
| 2026-04-22 20:49 | 48.00349 | 15.85481 | 16463 ft | 374 kts | 282° |
| 2026-04-22 20:49 | 48.00701 | 15.81615 | 17010 ft | 379 kts | 282° |
| 2026-04-22 20:49 | 48.01054 | 15.77724 | 17563 ft | 383 kts | 282° |
| 2026-04-22 20:50 | 48.01404 | 15.73850 | 18115 ft | 387 kts | 282° |
| 2026-04-22 20:50 | 48.01763 | 15.69844 | 18658 ft | 391 kts | 282° |
| 2026-04-22 20:50 | 48.02128 | 15.65796 | 19124 ft | 395 kts | 282° |
| 2026-04-22 20:50 | 48.02495 | 15.61699 | 19601 ft | 399 kts | 282° |
| 2026-04-22 20:51 | 48.02861 | 15.57564 | 20050 ft | 404 kts | 281° |
| 2026-04-22 20:51 | 48.03229 | 15.53381 | 20493 ft | 407 kts | 282° |
| 2026-04-22 20:51 | 48.03596 | 15.49202 | 20954 ft | 411 kts | 281° |
| 2026-04-22 20:51 | 48.03980 | 15.44953 | 21369 ft | 414 kts | 282° |
| 2026-04-22 20:52 | 48.04366 | 15.40665 | 21851 ft | 418 kts | 281° |
| 2026-04-22 20:52 | 48.04670 | 15.36325 | 22327 ft | 422 kts | 277° |
| 2026-04-22 20:52 | 48.04828 | 15.31926 | 22792 ft | 426 kts | 275° |
| 2026-04-22 20:52 | 48.04910 | 15.27483 | 23252 ft | 429 kts | 274° |
| 2026-04-22 20:53 | 48.04958 | 15.23013 | 23680 ft | 433 kts | 273° |
| 2026-04-22 20:53 | 48.04999 | 15.18483 | 24065 ft | 437 kts | 273° |
| 2026-04-22 20:53 | 48.05038 | 15.14544 | 24373 ft | 440 kts | 273° |
| 2026-04-22 20:53 | 48.05089 | 15.09947 | 24736 ft | 444 kts | 273° |
| 2026-04-22 20:54 | 48.05146 | 15.05311 | 25081 ft | 448 kts | 273° |
| 2026-04-22 20:54 | 48.05207 | 15.00641 | 25258 ft | 449 kts | 273° |
| 2026-04-22 20:54 | 48.05268 | 14.95967 | 25279 ft | 450 kts | 273° |
| 2026-04-22 20:54 | 48.05330 | 14.91278 | 25278 ft | 451 kts | 273° |
| 2026-04-22 20:55 | 48.05389 | 14.86582 | 25276 ft | 452 kts | 273° |
| 2026-04-22 20:55 | 48.05448 | 14.81880 | 25274 ft | 452 kts | 273° |
| 2026-04-22 20:55 | 48.05500 | 14.77180 | 25277 ft | 452 kts | 272° |
| 2026-04-22 20:55 | 48.05538 | 14.72474 | 25277 ft | 452 kts | 272° |
| 2026-04-22 20:56 | 48.05570 | 14.67771 | 25277 ft | 452 kts | 272° |
| 2026-04-22 20:56 | 48.05600 | 14.63078 | 25276 ft | 452 kts | 272° |
| 2026-04-22 20:56 | 48.05630 | 14.58428 | 25265 ft | 452 kts | 272° |
| 2026-04-22 20:56 | 48.05658 | 14.53728 | 25274 ft | 451 kts | 272° |
| 2026-04-22 20:57 | 48.05686 | 14.49040 | 25269 ft | 451 kts | 272° |
| 2026-04-22 20:57 | 48.05712 | 14.44350 | 25269 ft | 451 kts | 272° |
| 2026-04-22 20:57 | 48.05737 | 14.39658 | 25274 ft | 451 kts | 272° |
| 2026-04-22 20:57 | 48.05760 | 14.34957 | 25267 ft | 451 kts | 272° |
| 2026-04-22 20:58 | 48.05781 | 14.30258 | 25268 ft | 451 kts | 272° |
| 2026-04-22 20:58 | 48.05804 | 14.25631 | 25273 ft | 451 kts | 272° |
| 2026-04-22 20:58 | 48.05824 | 14.20932 | 25265 ft | 451 kts | 272° |
| 2026-04-22 20:58 | 48.05839 | 14.16251 | 25254 ft | 451 kts | 272° |
| 2026-04-22 20:59 | 48.05852 | 14.11560 | 25262 ft | 450 kts | 271° |
| 2026-04-22 20:59 | 48.05862 | 14.06881 | 25271 ft | 450 kts | 271° |
| 2026-04-22 20:59 | 48.05872 | 14.02206 | 25277 ft | 450 kts | 271° |
| 2026-04-22 20:59 | 48.05879 | 13.97531 | 25281 ft | 450 kts | 271° |
| 2026-04-22 21:00 | 48.05885 | 13.92856 | 25273 ft | 450 kts | 271° |
| 2026-04-22 21:00 | 48.05890 | 13.88179 | 25283 ft | 450 kts | 271° |
| 2026-04-22 21:00 | 48.05893 | 13.83495 | 25283 ft | 450 kts | 271° |
| 2026-04-22 21:00 | 48.05893 | 13.78812 | 25281 ft | 450 kts | 271° |
| 2026-04-22 21:01 | 48.05893 | 13.77221 | 25286 ft | 450 kts | 271° |